PWSweather.com
Personal Weather Stations
Station Observations
IBRABANT12
Leuven, BlandenBE 3052

LeuvenBlandenBE 3052

Lat: 50.8252218, Lon: 4.709682799999996

Elevation: 193

Station Type: Davis Vantage Vue

http://www.weerstationblanden.be

Latest ConditionsUpdated 10:10:11 AM GMT+01:01 Friday, May 6, 2016
Currently Today's Max Today's Min Today's Average
Temperature 65.0°F18.3°C 65.0°F18.3°C 50.6°F10.3°C 55.0°F12.8°C
Dew Point 51.2°F10.7°C 51.2°F10.7°C 43.7°F6.5°C 45.9°F7.7°C
Winds 2.0 mph SE3.2 kmh SE 5.8 mph SE9.3 kmh SE - 2.5 mph 4.0 kmh
Wind Gusts 6.0 mph9.7 kmh 9.0 mph14.5 kmh - -
Humidity 61% 78% 60% 72%
Pressure 29.86 in1011.2 mb 29.98 in1015.2 mb 29.86 in1011.2 mb -
Hour Temp Dew Point Humidity Winds Wind Gusts Pressure Precip Precip Rate Daily Precip Total
10:10 AM 65.0°F18.3°C 51.2°F10.7°C 61% 2.0 mph SE3.2 kmh SE 6.0 mph9.7 kmh 29.86 in1011.2 mb - 0.00 in0.0 mm 0.00 in0.0 mm
10:00 AM 64.9°F18.3°C 50.7°F10.4°C 60% 4.4 mph E7.1 kmh E 7.0 mph11.3 kmh 29.86 in1011.2 mb - 0.00 in0.0 mm 0.00 in0.0 mm
09:50 AM 63.4°F17.4°C 50.5°F10.3°C 63% 1.8 mph E2.9 kmh E 3.0 mph4.8 kmh 29.86 in1011.2 mb - 0.00 in0.0 mm 0.00 in0.0 mm
09:40 AM 62.5°F16.9°C 50.2°F10.1°C 64% 2.7 mph E4.3 kmh E 4.0 mph6.4 kmh 29.86 in1011.2 mb - 0.00 in0.0 mm 0.00 in0.0 mm
09:30 AM 63.0°F17.2°C 50.2°F10.1°C 63% 3.3 mph E5.3 kmh E 6.0 mph9.7 kmh 29.86 in1011.2 mb - 0.00 in0.0 mm 0.00 in0.0 mm
09:20 AM 62.6°F17.0°C 49.4°F9.7°C 62% 2.2 mph ENE3.5 kmh ENE 2.0 mph3.2 kmh 29.87 in1011.5 mb - 0.00 in0.0 mm 0.00 in0.0 mm
09:10 AM 62.2°F16.8°C 49.4°F9.7°C 63% 4.9 mph ENE7.9 kmh ENE 7.0 mph11.3 kmh 29.87 in1011.5 mb - 0.00 in0.0 mm 0.00 in0.0 mm
09:00 AM 61.8°F16.6°C 49.1°F9.5°C 63% 1.4 mph E2.3 kmh E 2.0 mph3.2 kmh 29.87 in1011.5 mb - 0.00 in0.0 mm 0.00 in0.0 mm
08:50 AM 61.0°F16.1°C 49.2°F9.6°C 65% 3.2 mph SE5.1 kmh SE 6.0 mph9.7 kmh 29.87 in1011.5 mb - 0.00 in0.0 mm 0.00 in0.0 mm
08:40 AM 60.2°F15.7°C 48.8°F9.3°C 66% 3.4 mph ESE5.5 kmh ESE 7.0 mph11.3 kmh 29.88 in1011.9 mb - 0.00 in0.0 mm 0.00 in0.0 mm
08:30 AM 59.8°F15.4°C 49.2°F9.6°C 68% 0.8 mph WSW1.3 kmh WSW 1.0 mph1.6 kmh 29.88 in1011.9 mb - 0.00 in0.0 mm 0.00 in0.0 mm
08:20 AM 58.7°F14.8°C 47.8°F8.8°C 67% 5.2 mph ENE8.4 kmh ENE 8.0 mph12.9 kmh 29.88 in1011.9 mb - 0.00 in0.0 mm 0.00 in0.0 mm
08:10 AM 58.3°F14.6°C 47.8°F8.8°C 68% 4.2 mph E6.8 kmh E 5.0 mph8.0 kmh 29.88 in1011.9 mb - 0.00 in0.0 mm 0.00 in0.0 mm
08:00 AM 57.8°F14.3°C 47.7°F8.7°C 69% 4.2 mph ESE6.8 kmh ESE 6.0 mph9.7 kmh 29.89 in1012.2 mb - 0.00 in0.0 mm 0.00 in0.0 mm
07:50 AM 57.5°F14.2°C 47.8°F8.8°C 70% 4.0 mph E6.4 kmh E 6.0 mph9.7 kmh 29.89 in1012.2 mb - 0.00 in0.0 mm 0.00 in0.0 mm
07:40 AM 56.9°F13.8°C 47.2°F8.4°C 70% 2.8 mph ENE4.5 kmh ENE 3.0 mph4.8 kmh 29.89 in1012.2 mb - 0.00 in0.0 mm 0.00 in0.0 mm
07:30 AM 56.0°F13.3°C 47.1°F8.4°C 72% 4.6 mph ESE7.4 kmh ESE 6.0 mph9.7 kmh 29.89 in1012.2 mb - 0.00 in0.0 mm 0.00 in0.0 mm
07:20 AM 55.2°F12.9°C 46.7°F8.2°C 73% 3.5 mph E5.6 kmh E 6.0 mph9.7 kmh 29.89 in1012.2 mb - 0.00 in0.0 mm 0.00 in0.0 mm
07:10 AM 54.6°F12.6°C 46.1°F7.8°C 73% 4.7 mph E7.6 kmh E 7.0 mph11.3 kmh 29.89 in1012.2 mb - 0.00 in0.0 mm 0.00 in0.0 mm
07:00 AM 54.1°F12.3°C 45.6°F7.6°C 73% 4.9 mph ESE7.9 kmh ESE 6.0 mph9.7 kmh 29.89 in1012.2 mb - 0.00 in0.0 mm 0.00 in0.0 mm
06:50 AM 53.6°F12.0°C 45.5°F7.5°C 74% 5.2 mph E8.4 kmh E 9.0 mph14.5 kmh 29.89 in1012.2 mb - 0.00 in0.0 mm 0.00 in0.0 mm
06:40 AM 53.3°F11.8°C 45.2°F7.3°C 74% 5.8 mph SE9.3 kmh SE 9.0 mph14.5 kmh 29.89 in1012.2 mb - 0.00 in0.0 mm 0.00 in0.0 mm
06:30 AM 53.2°F11.8°C 45.1°F7.3°C 74% 4.2 mph E6.8 kmh E 6.0 mph9.7 kmh 29.90 in1012.5 mb - 0.00 in0.0 mm 0.00 in0.0 mm
06:20 AM 52.8°F11.6°C 45.1°F7.3°C 75% 3.2 mph E5.1 kmh E 6.0 mph9.7 kmh 29.90 in1012.5 mb - 0.00 in0.0 mm 0.00 in0.0 mm
06:10 AM 52.6°F11.4°C 44.9°F7.2°C 75% 3.0 mph E4.8 kmh E 4.0 mph6.4 kmh 29.90 in1012.5 mb - 0.00 in0.0 mm 0.00 in0.0 mm
06:00 AM 52.2°F11.2°C 44.9°F7.2°C 76% 3.2 mph E5.1 kmh E 4.0 mph6.4 kmh 29.90 in1012.5 mb - 0.00 in0.0 mm 0.00 in0.0 mm
05:50 AM 51.9°F11.1°C 44.5°F6.9°C 76% 1.4 mph E2.3 kmh E 3.0 mph4.8 kmh 29.90 in1012.5 mb - 0.00 in0.0 mm 0.00 in0.0 mm
05:40 AM 51.2°F10.7°C 44.6°F7.0°C 78% 2.4 mph E3.9 kmh E 3.0 mph4.8 kmh 29.90 in1012.5 mb - 0.00 in0.0 mm 0.00 in0.0 mm
05:30 AM 50.7°F10.4°C 44.1°F6.7°C 78% 2.5 mph E4.0 kmh E 4.0 mph6.4 kmh 29.90 in1012.5 mb - 0.00 in0.0 mm 0.00 in0.0 mm
05:20 AM 50.7°F10.4°C 44.1°F6.7°C 78% 2.7 mph ESE4.3 kmh ESE 4.0 mph6.4 kmh 29.90 in1012.5 mb - 0.00 in0.0 mm 0.00 in0.0 mm
05:10 AM 50.6°F10.3°C 44.0°F6.7°C 78% 3.2 mph ESE5.1 kmh ESE 5.0 mph8.0 kmh 29.91 in1012.9 mb - 0.00 in0.0 mm 0.00 in0.0 mm
05:00 AM 50.6°F10.3°C 44.0°F6.7°C 78% 1.5 mph E2.4 kmh E 4.0 mph6.4 kmh 29.91 in1012.9 mb - 0.00 in0.0 mm 0.00 in0.0 mm
04:50 AM 50.7°F10.4°C 43.7°F6.5°C 77% 1.8 mph E2.9 kmh E 3.0 mph4.8 kmh 29.91 in1012.9 mb - 0.00 in0.0 mm 0.00 in0.0 mm
04:40 AM 50.7°F10.4°C 43.8°F6.6°C 77% 2.8 mph E4.5 kmh E 4.0 mph6.4 kmh 29.91 in1012.9 mb - 0.00 in0.0 mm 0.00 in0.0 mm
04:30 AM 50.9°F10.5°C 43.9°F6.6°C 77% 1.1 mph E1.8 kmh E 1.0 mph1.6 kmh 29.92 in1013.2 mb - 0.00 in0.0 mm 0.00 in0.0 mm
04:20 AM 51.2°F10.7°C 43.9°F6.6°C 76% 0.8 mph ESE1.3 kmh ESE 1.0 mph1.6 kmh 29.92 in1013.2 mb - 0.00 in0.0 mm 0.00 in0.0 mm
04:10 AM 51.3°F10.7°C 44.0°F6.7°C 76% 2.3 mph E3.7 kmh E 5.0 mph8.0 kmh 29.92 in1013.2 mb - 0.00 in0.0 mm 0.00 in0.0 mm
04:00 AM 51.6°F10.9°C 43.9°F6.6°C 75% 2.0 mph ESE3.2 kmh ESE 3.0 mph4.8 kmh 29.93 in1013.5 mb - 0.00 in0.0 mm 0.00 in0.0 mm
03:50 AM 51.9°F11.1°C 44.2°F6.8°C 75% 2.0 mph E3.2 kmh E 4.0 mph6.4 kmh 29.93 in1013.5 mb - 0.00 in0.0 mm 0.00 in0.0 mm
03:40 AM 52.2°F11.2°C 44.2°F6.8°C 74% 2.4 mph ESE3.9 kmh ESE 4.0 mph6.4 kmh 29.93 in1013.5 mb - 0.00 in0.0 mm 0.00 in0.0 mm
03:30 AM 52.4°F11.3°C 44.4°F6.9°C 74% 2.7 mph ESE4.3 kmh ESE 3.0 mph4.8 kmh 29.93 in1013.5 mb - 0.00 in0.0 mm 0.00 in0.0 mm
03:20 AM 52.4°F11.3°C 44.4°F6.9°C 74% 2.7 mph E4.3 kmh E 4.0 mph6.4 kmh 29.93 in1013.5 mb - 0.00 in0.0 mm 0.00 in0.0 mm
03:10 AM 52.4°F11.3°C 44.4°F6.9°C 74% 1.0 mph E1.6 kmh E 3.0 mph4.8 kmh 29.93 in1013.5 mb - 0.00 in0.0 mm 0.00 in0.0 mm
03:00 AM 52.6°F11.4°C 44.5°F6.9°C 74% 0.6 mph E1.0 kmh E 4.0 mph6.4 kmh 29.94 in1013.9 mb - 0.00 in0.0 mm 0.00 in0.0 mm
02:50 AM 52.8°F11.6°C 44.4°F6.9°C 73% 0.9 mph E1.4 kmh E 1.0 mph1.6 kmh 29.94 in1013.9 mb - 0.00 in0.0 mm 0.00 in0.0 mm
02:40 AM 53.0°F11.7°C 44.6°F7.0°C 73% 1.5 mph ESE2.4 kmh ESE 2.0 mph3.2 kmh 29.95 in1014.2 mb - 0.00 in0.0 mm 0.00 in0.0 mm
02:30 AM 53.3°F11.8°C 44.5°F6.9°C 72% 1.0 mph ESE1.6 kmh ESE 2.0 mph3.2 kmh 29.95 in1014.2 mb - 0.00 in0.0 mm 0.00 in0.0 mm
02:20 AM 53.4°F11.9°C 44.6°F7.0°C 72% 2.4 mph SE3.9 kmh SE 3.0 mph4.8 kmh 29.95 in1014.2 mb - 0.00 in0.0 mm 0.00 in0.0 mm
02:10 AM 53.4°F11.9°C 44.6°F7.0°C 72% 2.1 mph ESE3.4 kmh ESE 3.0 mph4.8 kmh 29.95 in1014.2 mb - 0.00 in0.0 mm 0.00 in0.0 mm
02:00 AM 53.4°F11.9°C 44.6°F7.0°C 72% 1.5 mph ESE2.4 kmh ESE 3.0 mph4.8 kmh 29.95 in1014.2 mb - 0.00 in0.0 mm 0.00 in0.0 mm
01:50 AM 53.4°F11.9°C 44.6°F7.0°C 72% 0.6 mph ENE1.0 kmh ENE 1.0 mph1.6 kmh 29.95 in1014.2 mb - 0.00 in0.0 mm 0.00 in0.0 mm
01:40 AM 53.5°F11.9°C 45.1°F7.3°C 73% 1.0 mph E1.6 kmh E 2.0 mph3.2 kmh 29.96 in1014.6 mb - 0.00 in0.0 mm 0.00 in0.0 mm
01:30 AM 53.4°F11.9°C 45.0°F7.2°C 73% 1.6 mph ESE2.6 kmh ESE 3.0 mph4.8 kmh 29.96 in1014.6 mb - 0.00 in0.0 mm 0.00 in0.0 mm
01:20 AM 53.5°F11.9°C 45.1°F7.3°C 73% 0.9 mph SE1.4 kmh SE 1.0 mph1.6 kmh 29.96 in1014.6 mb - 0.00 in0.0 mm 0.00 in0.0 mm
01:10 AM 53.7°F12.1°C 44.9°F7.2°C 72% 0.1 mph ESE0.2 kmh ESE 2.0 mph3.2 kmh 29.97 in1014.9 mb - 0.00 in0.0 mm 0.00 in0.0 mm
01:00 AM 54.0°F12.2°C 45.2°F7.3°C 72% 1.3 mph ESE2.1 kmh ESE 2.0 mph3.2 kmh 29.97 in1014.9 mb - 0.00 in0.0 mm 0.00 in0.0 mm
12:50 AM 54.1°F12.3°C 44.9°F7.2°C 71% 1.9 mph E3.1 kmh E 2.0 mph3.2 kmh 29.97 in1014.9 mb - 0.00 in0.0 mm 0.00 in0.0 mm
12:40 AM 54.3°F12.4°C 45.1°F7.3°C 71% 1.9 mph E3.1 kmh E 3.0 mph4.8 kmh 29.97 in1014.9 mb - 0.00 in0.0 mm 0.00 in0.0 mm
12:30 AM 54.7°F12.6°C 45.1°F7.3°C 70% 0.3 mph ESE0.5 kmh ESE 2.0 mph3.2 kmh 29.98 in1015.2 mb - 0.00 in0.0 mm 0.00 in0.0 mm
12:20 AM 54.7°F12.6°C 45.5°F7.5°C 71% 1.9 mph E3.1 kmh E 3.0 mph4.8 kmh 29.97 in1014.9 mb - 0.00 in0.0 mm 0.00 in0.0 mm
12:10 AM 54.6°F12.6°C 45.4°F7.4°C 71% 1.6 mph ESE2.6 kmh ESE 2.0 mph3.2 kmh 29.98 in1015.2 mb - 0.00 in0.0 mm 0.00 in0.0 mm
12:00 AM 54.6°F12.6°C 45.4°F7.4°C 71% 1.3 mph E2.1 kmh E 3.0 mph4.8 kmh 29.98 in1015.2 mb - 0.00 in0.0 mm 0.00 in0.0 mm